createdAt,value
2023-05-21T00:01:53.297Z,60.38
2023-05-21T00:04:19.770Z,61.05
2023-05-21T00:06:46.223Z,60.13
2023-05-21T00:09:12.576Z,60.83
2023-05-21T00:11:38.933Z,60.77
2023-05-21T00:14:05.312Z,60.92
2023-05-21T00:16:31.812Z,60.50
2023-05-21T00:18:58.286Z,60.22
2023-05-21T00:21:24.713Z,60.18
2023-05-21T00:23:51.091Z,60.37
2023-05-21T00:26:17.441Z,60.00
2023-05-21T00:28:43.776Z,60.16
2023-05-21T00:31:10.221Z,60.11
2023-05-21T00:33:36.552Z,60.13
2023-05-21T00:36:03.158Z,61.12
2023-05-21T00:38:29.570Z,60.48
2023-05-21T00:40:55.904Z,60.33
2023-05-21T00:43:22.272Z,60.27
2023-05-21T00:45:48.784Z,61.45
2023-05-21T00:48:16.284Z,61.09
2023-05-21T00:50:42.670Z,60.36
2023-05-21T00:53:09.198Z,60.23
2023-05-21T00:55:37.582Z,60.72
2023-05-21T00:58:04.845Z,60.67
2023-05-21T01:00:35.370Z,60.69
2023-05-21T01:03:02.194Z,60.32
2023-05-21T01:05:28.939Z,60.43
2023-05-21T01:07:56.918Z,60.70
2023-05-21T01:10:24.013Z,60.76
2023-05-21T01:12:51.140Z,61.79
2023-05-21T01:15:17.623Z,60.71
2023-05-21T01:17:44.555Z,61.27
2023-05-21T01:20:11.262Z,61.34
2023-05-21T01:22:55.228Z,61.92
2023-05-21T01:25:22.816Z,60.97
2023-05-21T01:27:49.719Z,61.11
2023-05-21T01:30:17.818Z,61.03
2023-05-21T01:33:03.664Z,62.53
2023-05-21T01:35:41.642Z,62.40
2023-05-21T01:38:22.731Z,61.75
2023-05-21T01:40:55.508Z,61.74
2023-05-21T01:43:22.606Z,62.26
2023-05-21T01:45:54.144Z,61.95
2023-05-21T01:48:21.818Z,61.83
2023-05-21T01:50:50.611Z,62.55
2023-05-21T01:53:17.222Z,62.08
2023-05-21T01:55:43.580Z,62.42
2023-05-21T01:58:10.006Z,62.37
2023-05-21T02:00:36.353Z,62.84
2023-05-21T02:03:02.919Z,62.83
2023-05-21T02:05:29.528Z,62.75
2023-05-21T02:07:55.941Z,62.98
2023-05-21T02:10:23.048Z,63.39
2023-05-21T02:12:49.365Z,63.30
2023-05-21T02:15:15.713Z,64.31
2023-05-21T02:17:42.169Z,63.47
2023-05-21T02:20:08.814Z,63.96
2023-05-21T02:22:35.202Z,64.45
2023-05-21T02:25:01.585Z,64.24
2023-05-21T02:27:27.998Z,64.35
2023-05-21T02:29:54.324Z,64.23
2023-05-21T02:32:20.764Z,64.43
2023-05-21T02:34:47.111Z,64.91
2023-05-21T02:37:13.617Z,64.82
2023-05-21T02:39:39.994Z,64.75
2023-05-21T02:42:06.344Z,65.14
2023-05-21T02:44:32.701Z,64.79
2023-05-21T02:46:59.052Z,65.41
2023-05-21T02:49:25.425Z,65.06
2023-05-21T02:51:51.781Z,65.52
2023-05-21T02:54:18.164Z,65.83
2023-05-21T02:56:44.526Z,65.84
2023-05-21T02:59:10.955Z,66.08
2023-05-21T03:01:37.337Z,66.49
2023-05-21T03:04:03.885Z,66.15
2023-05-21T03:06:30.217Z,66.64
2023-05-21T03:08:56.685Z,66.33
2023-05-21T03:11:23.031Z,66.78
2023-05-21T03:13:49.611Z,67.19
2023-05-21T03:16:18.642Z,67.67
2023-05-21T03:18:45.180Z,67.73
2023-05-21T03:21:11.824Z,67.67
2023-05-21T03:23:38.172Z,67.70
2023-05-21T03:26:04.750Z,67.65
2023-05-21T03:28:31.382Z,68.71
2023-05-21T03:30:57.698Z,67.50
2023-05-21T03:33:24.167Z,67.44
2023-05-21T03:35:50.523Z,68.02
2023-05-21T03:38:16.892Z,67.65
2023-05-21T03:40:43.391Z,68.25
2023-05-21T03:43:09.761Z,68.34
2023-05-21T03:45:36.322Z,68.51
2023-05-21T03:48:03.116Z,68.57
2023-05-21T03:50:29.524Z,69.22
2023-05-21T03:52:55.868Z,68.34
2023-05-21T03:55:22.392Z,68.35
2023-05-21T03:57:48.733Z,68.79
2023-05-21T04:00:15.350Z,68.89
2023-05-21T04:02:41.732Z,69.04
2023-05-21T04:05:08.449Z,69.03
2023-05-21T04:07:34.821Z,68.62
2023-05-21T04:10:01.239Z,68.65
2023-05-21T04:12:27.575Z,68.50
2023-05-21T04:14:53.917Z,68.08
2023-05-21T04:17:20.276Z,68.01
2023-05-21T04:19:46.615Z,68.06
2023-05-21T04:22:12.976Z,68.51
2023-05-21T04:24:39.402Z,68.74
2023-05-21T04:27:05.975Z,70.23
2023-05-21T04:29:33.666Z,68.87
2023-05-21T04:31:59.986Z,68.46
2023-05-21T04:34:26.333Z,68.39
2023-05-21T04:36:52.771Z,68.04
2023-05-21T04:39:19.099Z,67.86
2023-05-21T04:41:45.438Z,68.09
2023-05-21T04:44:12.284Z,68.23
2023-05-21T04:46:41.582Z,68.20
2023-05-21T04:49:09.215Z,67.78
2023-05-21T04:51:35.590Z,67.47
2023-05-21T04:54:01.962Z,67.38
2023-05-21T04:56:28.345Z,67.37
2023-05-21T04:58:54.821Z,67.12
2023-05-21T05:01:22.086Z,66.76
2023-05-21T05:03:48.771Z,66.78
2023-05-21T05:06:15.371Z,66.87
2023-05-21T05:08:41.785Z,66.83
2023-05-21T05:11:08.268Z,66.52
2023-05-21T05:13:34.918Z,66.67
2023-05-21T05:16:01.366Z,66.16
2023-05-21T05:18:27.726Z,66.24
2023-05-21T05:20:54.191Z,66.09
2023-05-21T05:23:20.508Z,65.66
2023-05-21T05:25:46.955Z,65.44
2023-05-21T05:28:13.329Z,65.59
2023-05-21T05:30:39.701Z,65.36
2023-05-21T05:33:06.086Z,65.24
2023-05-21T05:35:32.602Z,65.14
2023-05-21T05:37:58.927Z,64.86
2023-05-21T05:40:25.273Z,64.76
2023-05-21T05:46:18.338Z,64.19
2023-05-21T05:48:44.714Z,64.09
2023-05-21T05:51:11.050Z,63.94
2023-05-21T05:53:42.409Z,64.11
2023-05-21T05:56:13.843Z,63.92
2023-05-21T05:58:40.233Z,63.82
2023-05-21T06:01:06.689Z,62.99
2023-05-21T06:03:33.244Z,62.95
2023-05-21T06:05:59.913Z,62.84
2023-05-21T06:08:26.280Z,62.43
2023-05-21T06:10:52.648Z,62.09
2023-05-21T06:13:19.072Z,61.72
2023-05-21T06:19:07.814Z,60.65
2023-05-21T06:21:34.209Z,60.05
2023-05-21T06:24:00.500Z,59.68
2023-05-21T06:26:26.923Z,59.00
2023-05-21T06:28:53.348Z,59.28
2023-05-21T06:31:19.762Z,58.49
2023-05-21T06:37:08.032Z,58.18
2023-05-21T06:39:34.395Z,57.17
2023-05-21T06:42:00.876Z,57.46
2023-05-21T06:44:27.211Z,56.60
2023-05-21T06:46:53.640Z,56.90
2023-05-21T06:49:19.964Z,56.80
2023-05-21T06:51:46.331Z,55.63
2023-05-21T06:54:17.919Z,53.97
2023-05-21T06:56:44.324Z,55.09
2023-05-21T06:59:10.656Z,54.63
2023-05-21T07:01:42.100Z,54.87
2023-05-21T07:04:08.816Z,53.62
2023-05-21T07:06:36.122Z,53.53
2023-05-21T07:09:02.589Z,53.76
2023-05-21T07:11:29.032Z,52.70
2023-05-21T07:13:58.658Z,52.72
2023-05-21T07:16:25.060Z,52.33
2023-05-21T07:18:51.446Z,52.20
2023-05-21T07:21:17.759Z,52.01
2023-05-21T07:23:44.296Z,51.96
2023-05-21T07:26:11.069Z,51.96
2023-05-21T07:28:37.419Z,51.60
2023-05-21T07:31:03.774Z,51.33
2023-05-21T07:33:30.153Z,50.64
2023-05-21T07:35:56.613Z,49.90
2023-05-21T07:38:23.282Z,49.70
2023-05-21T07:40:49.649Z,49.95
2023-05-21T07:43:15.998Z,49.46
2023-05-21T07:45:42.334Z,49.78
2023-05-21T07:48:08.745Z,49.53
2023-05-21T07:50:35.192Z,49.02
2023-05-21T07:53:01.654Z,49.14
2023-05-21T07:55:28.060Z,48.62
2023-05-21T07:57:54.446Z,49.11
2023-05-21T08:00:24.061Z,48.73
2023-05-21T08:02:50.496Z,48.62
2023-05-21T08:05:17.060Z,48.35
2023-05-21T08:07:43.453Z,48.30
2023-05-21T08:10:09.970Z,48.20
2023-05-21T08:12:36.394Z,47.48
2023-05-21T08:15:02.729Z,46.66
2023-05-21T08:17:29.082Z,46.58
2023-05-21T08:19:55.454Z,45.78
2023-05-21T08:22:22.084Z,45.61
2023-05-21T08:24:48.407Z,44.78
2023-05-21T08:27:14.902Z,46.29
2023-05-21T08:29:41.237Z,46.16
2023-05-21T08:32:08.365Z,44.52
2023-05-21T08:34:34.896Z,45.45
2023-05-21T08:37:01.265Z,45.05
2023-05-21T08:39:27.715Z,45.15
2023-05-21T08:42:00.550Z,44.88
2023-05-21T08:44:31.075Z,43.62
2023-05-21T08:46:59.088Z,43.67
2023-05-21T08:49:30.662Z,44.53
2023-05-21T08:51:58.471Z,44.43
2023-05-21T08:54:24.880Z,43.88
2023-05-21T08:56:53.227Z,43.44
2023-05-21T08:59:21.101Z,43.32
2023-05-21T09:01:48.392Z,42.42
2023-05-21T09:04:21.209Z,41.51
2023-05-21T09:06:48.392Z,42.20
2023-05-21T09:09:25.066Z,41.52
2023-05-21T09:11:51.496Z,41.87
2023-05-21T09:14:19.250Z,41.26
2023-05-21T09:16:46.645Z,41.69
2023-05-21T09:19:13.155Z,42.14
2023-05-21T09:21:39.602Z,41.06
2023-05-21T09:24:09.135Z,42.60
2023-05-21T09:26:35.528Z,41.61
2023-05-21T09:29:01.944Z,42.46
2023-05-21T09:31:29.499Z,41.93
2023-05-21T09:33:56.007Z,41.82
2023-05-21T09:36:22.824Z,42.04
2023-05-21T09:38:50.078Z,42.24
2023-05-21T09:41:19.956Z,42.72
2023-05-21T09:43:48.272Z,41.84
2023-05-21T09:46:14.584Z,42.50
2023-05-21T09:48:42.593Z,41.13
2023-05-21T09:51:16.800Z,40.54
2023-05-21T09:53:50.559Z,40.18
2023-05-21T09:56:28.932Z,40.37
2023-05-21T09:58:56.787Z,40.76
2023-05-21T10:01:26.757Z,40.45
2023-05-21T10:03:58.910Z,40.79
2023-05-21T10:06:29.666Z,41.72
2023-05-21T10:08:57.541Z,40.25
2023-05-21T10:11:27.095Z,40.56
2023-05-21T10:14:00.744Z,40.47
2023-05-21T10:16:29.445Z,40.97
2023-05-21T10:18:57.452Z,41.16
2023-05-21T10:21:23.907Z,40.95
2023-05-21T10:23:50.765Z,40.84
2023-05-21T10:26:18.340Z,40.39
2023-05-21T10:28:44.675Z,40.74
2023-05-21T10:31:12.033Z,40.68
2023-05-21T10:33:38.575Z,40.49
2023-05-21T10:36:05.691Z,39.87
2023-05-21T10:38:33.745Z,39.13
2023-05-21T10:41:02.405Z,38.33
2023-05-21T10:43:54.989Z,37.99
2023-05-21T10:46:42.623Z,36.40
2023-05-21T10:49:37.180Z,36.05
2023-05-21T10:52:35.210Z,35.75
2023-05-21T10:55:19.688Z,37.20
2023-05-21T10:58:13.278Z,36.07
2023-05-21T11:00:39.976Z,35.80
2023-05-21T11:03:07.876Z,35.40
2023-05-21T11:05:50.752Z,35.42
2023-05-21T11:08:28.260Z,34.74
2023-05-21T11:10:56.468Z,35.70
2023-05-21T11:13:22.950Z,35.88
2023-05-21T11:16:13.811Z,34.50
2023-05-21T11:18:40.197Z,34.63
2023-05-21T11:21:09.505Z,34.08
2023-05-21T11:23:51.860Z,34.72
2023-05-21T11:26:29.759Z,33.17
2023-05-21T11:29:05.262Z,33.43
2023-05-21T11:31:33.624Z,32.72
2023-05-21T11:34:20.320Z,31.00
2023-05-21T11:36:48.155Z,31.23
2023-05-21T11:39:15.879Z,30.97
2023-05-21T11:42:01.010Z,31.36
2023-05-21T11:44:45.860Z,29.59
2023-05-21T11:47:14.439Z,30.88
2023-05-21T11:49:40.997Z,30.73
2023-05-21T11:52:09.361Z,29.51
2023-05-21T11:54:46.684Z,29.28
2023-05-21T11:57:13.415Z,30.58
2023-05-21T11:59:39.665Z,29.70
2023-05-21T12:02:06.063Z,29.94
2023-05-21T12:04:34.199Z,29.08
2023-05-21T12:07:04.073Z,29.51
2023-05-21T12:09:30.648Z,30.50
2023-05-21T12:11:57.032Z,30.20
2023-05-21T12:14:23.475Z,29.69
2023-05-21T12:16:49.898Z,30.39
2023-05-21T12:19:17.774Z,30.15
2023-05-21T12:21:44.226Z,30.74
2023-05-21T12:24:10.840Z,31.36
2023-05-21T12:26:37.347Z,31.26
2023-05-21T12:29:04.783Z,32.01
2023-05-21T12:31:31.255Z,32.41
2023-05-21T12:33:57.645Z,32.26
2023-05-21T12:36:29.412Z,31.94
2023-05-21T12:38:55.938Z,31.95
2023-05-21T12:41:22.325Z,32.60
2023-05-21T12:43:50.197Z,32.84
2023-05-21T12:46:17.336Z,31.92
2023-05-21T12:48:53.948Z,30.91
2023-05-21T12:51:20.947Z,29.75
2023-05-21T12:53:47.736Z,31.23
2023-05-21T12:56:14.830Z,30.78
2023-05-21T12:58:42.132Z,31.93
2023-05-21T13:01:12.072Z,30.81
2023-05-21T13:03:39.057Z,30.15
2023-05-21T13:06:08.839Z,30.59
2023-05-21T13:08:35.388Z,30.48
2023-05-21T13:11:02.916Z,30.72
2023-05-21T13:13:29.798Z,30.78
2023-05-21T13:15:56.550Z,30.37
2023-05-21T13:18:22.917Z,29.34
2023-05-21T13:20:49.498Z,30.03
2023-05-21T13:23:15.831Z,29.43
2023-05-21T13:25:42.245Z,29.70
2023-05-21T13:28:08.702Z,29.32
2023-05-21T13:30:35.299Z,29.34
2023-05-21T13:33:01.948Z,28.89
2023-05-21T13:35:28.499Z,30.04
2023-05-21T13:37:54.815Z,30.45
2023-05-21T13:40:22.300Z,30.46
2023-05-21T13:42:49.604Z,29.96
2023-05-21T13:45:18.022Z,30.22
2023-05-21T13:47:45.839Z,29.95
2023-05-21T13:50:12.867Z,29.69
2023-05-21T13:52:39.455Z,29.55
2023-05-21T13:55:06.323Z,29.57
2023-05-21T13:57:32.894Z,28.89
2023-05-21T13:59:59.685Z,28.43
2023-05-21T14:02:26.268Z,27.41
2023-05-21T14:04:52.815Z,27.14
2023-05-21T14:07:19.335Z,28.34
2023-05-21T14:09:46.150Z,28.67
2023-05-21T14:12:12.484Z,26.88
2023-05-21T14:14:38.850Z,26.22
2023-05-21T14:17:05.855Z,26.60
2023-05-21T14:19:32.437Z,26.35
2023-05-21T14:21:58.851Z,26.08
2023-05-21T14:24:25.251Z,26.76
2023-05-21T14:26:51.604Z,25.84
2023-05-21T14:29:17.917Z,26.46
2023-05-21T14:31:44.270Z,27.41
2023-05-21T14:34:10.731Z,27.57
2023-05-21T14:36:37.066Z,27.77
2023-05-21T14:39:03.632Z,27.87
2023-05-21T14:41:29.965Z,27.70
2023-05-21T14:43:56.388Z,27.19
2023-05-21T14:46:22.969Z,27.22
2023-05-21T14:48:49.461Z,28.08
2023-05-21T14:51:15.808Z,28.36
2023-05-21T14:53:42.164Z,28.56
2023-05-21T14:56:08.646Z,28.06
2023-05-21T14:58:34.957Z,29.02
2023-05-21T15:01:02.587Z,29.45
2023-05-21T15:03:29.157Z,28.77
2023-05-21T15:05:55.689Z,28.37
2023-05-21T15:08:22.125Z,28.81
2023-05-21T15:10:48.419Z,28.93
2023-05-21T15:13:14.742Z,29.38
2023-05-21T15:15:41.380Z,26.88
2023-05-21T15:18:07.767Z,26.68
2023-05-21T15:20:34.246Z,27.67
2023-05-21T15:25:31.474Z,27.30
2023-05-21T15:27:58.124Z,28.18
2023-05-21T15:30:24.417Z,26.82
2023-05-21T15:32:50.804Z,27.28
2023-05-21T15:35:17.237Z,27.61
2023-05-21T15:37:43.705Z,28.06
2023-05-21T15:40:10.274Z,27.89
2023-05-21T15:42:36.895Z,28.26
2023-05-21T15:45:03.372Z,27.75
2023-05-21T15:47:29.755Z,28.59
2023-05-21T15:49:56.104Z,28.54
2023-05-21T15:52:22.456Z,29.60
2023-05-21T15:54:48.762Z,29.52
2023-05-21T15:57:15.102Z,29.59
2023-05-21T15:59:41.522Z,29.44
2023-05-21T16:02:09.134Z,29.40
2023-05-21T16:04:36.232Z,29.47
2023-05-21T16:07:02.628Z,29.33
2023-05-21T16:09:28.979Z,29.79
2023-05-21T16:11:55.306Z,29.73
2023-05-21T16:14:21.665Z,29.69
2023-05-21T16:16:48.170Z,29.86
2023-05-21T16:19:14.623Z,29.16
2023-05-21T16:21:41.553Z,29.26
2023-05-21T16:24:07.973Z,29.27
2023-05-21T16:26:34.299Z,29.54
2023-05-21T16:29:02.251Z,29.94
2023-05-21T16:31:28.942Z,30.04
2023-05-21T16:33:55.324Z,29.94
2023-05-21T16:36:21.726Z,30.25
2023-05-21T16:38:48.169Z,29.01
2023-05-21T16:41:14.540Z,27.77
2023-05-21T16:43:40.860Z,26.37
2023-05-21T16:46:07.221Z,26.39
2023-05-21T16:48:34.069Z,26.21
2023-05-21T16:51:01.697Z,26.27
2023-05-21T16:53:28.044Z,26.23
2023-05-21T16:55:54.447Z,26.25
2023-05-21T16:58:20.779Z,26.81
2023-05-21T17:00:47.197Z,26.85
2023-05-21T17:03:13.945Z,27.37
2023-05-21T17:05:40.504Z,27.86
2023-05-21T17:08:06.911Z,28.03
2023-05-21T17:10:33.278Z,28.43
2023-05-21T17:13:01.839Z,28.22
2023-05-21T17:15:33.219Z,29.03
2023-05-21T17:17:59.614Z,28.89
2023-05-21T17:20:25.941Z,29.58
2023-05-21T17:22:52.328Z,29.69
2023-05-21T17:25:18.863Z,29.92
2023-05-21T17:27:45.238Z,30.05
2023-05-21T17:30:11.931Z,30.11
2023-05-21T17:32:38.308Z,30.85
2023-05-21T17:35:05.058Z,30.68
2023-05-21T17:37:31.311Z,31.67
2023-05-21T17:39:57.661Z,31.50
2023-05-21T17:42:24.002Z,31.40
2023-05-21T17:44:50.327Z,31.96
2023-05-21T17:47:16.688Z,32.18
2023-05-21T17:49:43.117Z,32.27
2023-05-21T17:52:09.451Z,32.59
2023-05-21T17:54:35.892Z,33.04
2023-05-21T17:57:02.334Z,33.16
2023-05-21T17:59:28.649Z,33.64
2023-05-21T18:01:55.002Z,33.61
2023-05-21T18:04:21.366Z,34.22
2023-05-21T18:06:47.802Z,34.40
2023-05-21T18:09:14.327Z,34.50
2023-05-21T18:11:42.555Z,34.61
2023-05-21T18:14:08.886Z,35.17
2023-05-21T18:16:35.496Z,35.57
2023-05-21T18:19:02.134Z,35.20
2023-05-21T18:21:28.537Z,35.20
2023-05-21T18:23:54.948Z,35.38
2023-05-21T18:26:21.310Z,35.10
2023-05-21T18:28:47.939Z,35.08
2023-05-21T18:31:14.313Z,35.50
2023-05-21T18:33:40.628Z,35.99
2023-05-21T18:36:07.307Z,36.51
2023-05-21T18:38:33.765Z,36.81
2023-05-21T18:41:00.261Z,37.05
2023-05-21T18:43:26.697Z,37.53
2023-05-21T18:45:53.056Z,37.95
2023-05-21T18:48:19.458Z,38.56
2023-05-21T18:50:45.904Z,38.86
2023-05-21T18:53:12.266Z,39.96
2023-05-21T18:55:38.599Z,40.65
2023-05-21T18:58:04.994Z,41.04
2023-05-21T19:00:31.455Z,41.93
2023-05-21T19:02:57.850Z,42.28
2023-05-21T19:05:24.220Z,42.89
2023-05-21T19:07:50.594Z,43.31
2023-05-21T19:10:17.163Z,43.78
2023-05-21T19:12:43.726Z,44.62
2023-05-21T19:15:10.679Z,44.68
2023-05-21T19:17:37.250Z,44.91
2023-05-21T19:20:03.937Z,45.99
2023-05-21T19:22:30.885Z,45.87
2023-05-21T19:24:57.134Z,46.87
2023-05-21T19:27:23.602Z,46.55
2023-05-21T19:29:49.966Z,46.94
2023-05-21T19:32:16.699Z,47.72
2023-05-21T19:34:43.245Z,48.01
2023-05-21T19:37:09.573Z,48.34
2023-05-21T19:39:40.236Z,48.54
2023-05-21T19:42:07.541Z,48.51
2023-05-21T19:44:34.030Z,48.68
2023-05-21T19:47:01.612Z,48.77
2023-05-21T19:49:28.264Z,49.09
2023-05-21T19:51:54.887Z,49.46
2023-05-21T19:54:22.481Z,49.56
2023-05-21T19:56:49.422Z,49.82
2023-05-21T19:59:15.748Z,50.20
2023-05-21T20:01:42.159Z,50.36
2023-05-21T20:04:09.119Z,50.96
2023-05-21T20:06:35.847Z,51.25
2023-05-21T20:09:02.319Z,51.77
2023-05-21T20:11:28.707Z,51.78
2023-05-21T20:13:55.060Z,52.42
2023-05-21T20:16:21.524Z,52.39
2023-05-21T20:18:47.933Z,52.94
2023-05-21T20:21:15.713Z,53.25
2023-05-21T20:23:42.126Z,53.33
2023-05-21T20:26:08.465Z,53.84
2023-05-21T20:28:34.966Z,54.35
2023-05-21T20:31:01.378Z,54.60
2023-05-21T20:33:30.130Z,54.96
2023-05-21T20:35:56.753Z,54.91
2023-05-21T20:38:23.563Z,55.45
2023-05-21T20:40:49.907Z,55.36
2023-05-21T20:43:16.231Z,55.38
2023-05-21T20:45:42.560Z,56.30
2023-05-21T20:48:08.932Z,56.10
2023-05-21T20:50:36.040Z,55.85
2023-05-21T20:53:02.415Z,56.70
2023-05-21T20:55:28.754Z,56.91
2023-05-21T20:57:55.223Z,56.89
2023-05-21T21:00:21.604Z,57.12
2023-05-21T21:02:47.999Z,57.47
2023-05-21T21:05:14.395Z,57.73
2023-05-21T21:07:40.840Z,58.39
2023-05-21T21:10:07.860Z,58.09
2023-05-21T21:12:34.391Z,57.72
2023-05-21T21:15:00.869Z,57.88
2023-05-21T21:17:27.220Z,58.30
2023-05-21T21:19:53.629Z,58.03
2023-05-21T21:22:20.332Z,58.35
2023-05-21T21:24:47.466Z,58.83
2023-05-21T21:27:13.747Z,59.48
2023-05-21T21:29:40.072Z,58.79
2023-05-21T21:32:07.019Z,59.54
2023-05-21T21:34:33.467Z,59.96
2023-05-21T21:36:59.806Z,59.57
2023-05-21T21:39:26.294Z,59.77
2023-05-21T21:41:52.618Z,60.47
2023-05-21T21:44:18.930Z,60.81
2023-05-21T21:46:45.329Z,60.93
2023-05-21T21:49:11.656Z,61.27
2023-05-21T21:51:38.049Z,61.59
2023-05-21T21:54:04.655Z,61.71
2023-05-21T21:56:31.045Z,61.92
2023-05-21T21:58:57.383Z,61.72
2023-05-21T22:01:23.920Z,62.18
2023-05-21T22:03:50.360Z,62.37
2023-05-21T22:06:16.819Z,62.53
2023-05-21T22:08:43.222Z,62.49
2023-05-21T22:11:09.857Z,62.53
2023-05-21T22:13:36.253Z,62.84
2023-05-21T22:16:02.733Z,63.24
2023-05-21T22:18:40.446Z,62.98
2023-05-21T22:21:10.023Z,63.59
2023-05-21T22:23:37.237Z,63.07
2023-05-21T22:26:03.724Z,63.17
2023-05-21T22:28:30.232Z,63.25
2023-05-21T22:30:56.677Z,63.43
2023-05-21T22:33:23.205Z,63.81
2023-05-21T22:35:49.656Z,64.15
2023-05-21T22:38:15.994Z,63.62
2023-05-21T22:40:42.357Z,64.21
2023-05-21T22:43:08.868Z,64.23
2023-05-21T22:45:35.234Z,64.26
2023-05-21T22:48:01.670Z,64.40
2023-05-21T22:50:28.105Z,64.00
2023-05-21T22:52:54.717Z,64.31
2023-05-21T22:55:21.081Z,64.24
2023-05-21T22:57:47.428Z,65.47
2023-05-21T23:00:14.005Z,64.88
2023-05-21T23:02:40.473Z,65.27
2023-05-21T23:05:07.151Z,65.18
2023-05-21T23:07:33.636Z,65.17
2023-05-21T23:09:59.953Z,64.74
2023-05-21T23:12:26.332Z,65.08
2023-05-21T23:14:52.763Z,65.10
2023-05-21T23:17:19.219Z,65.40
2023-05-21T23:19:45.564Z,65.14
2023-05-21T23:22:11.965Z,65.36
2023-05-21T23:24:38.445Z,65.44
2023-05-21T23:27:04.913Z,65.78
2023-05-21T23:29:31.454Z,65.47
2023-05-21T23:31:57.912Z,66.05
2023-05-21T23:34:24.278Z,66.55
2023-05-21T23:36:51.195Z,66.67
2023-05-21T23:39:17.758Z,66.80
2023-05-21T23:41:44.739Z,66.95
2023-05-21T23:44:11.078Z,67.58
2023-05-21T23:46:37.519Z,67.75
2023-05-21T23:49:03.857Z,67.86
2023-05-21T23:51:30.530Z,67.79
2023-05-21T23:53:56.871Z,68.07
2023-05-21T23:56:23.200Z,67.74
2023-05-21T23:58:50.169Z,68.17
